sensor_id;sensor_type;location;lat;lon;timestamp;P1;durP1;ratioP1;P2;durP2;ratioP2
3443;SDS011;1736;52.068;6.968;2022-11-15T00:01:19;21.60;;;11.30;;
3443;SDS011;1736;52.068;6.968;2022-11-15T00:03:45;20.57;;;11.70;;
3443;SDS011;1736;52.068;6.968;2022-11-15T00:06:12;20.13;;;10.77;;
3443;SDS011;1736;52.068;6.968;2022-11-15T00:08:38;20.47;;;11.10;;
3443;SDS011;1736;52.068;6.968;2022-11-15T00:11:05;21.50;;;11.60;;
3443;SDS011;1736;52.068;6.968;2022-11-15T00:13:32;18.43;;;11.13;;
3443;SDS011;1736;52.068;6.968;2022-11-15T00:15:58;19.07;;;12.40;;
3443;SDS011;1736;52.068;6.968;2022-11-15T00:18:28;21.00;;;12.00;;
3443;SDS011;1736;52.068;6.968;2022-11-15T00:20:55;21.83;;;12.50;;
3443;SDS011;1736;52.068;6.968;2022-11-15T00:23:22;23.70;;;11.67;;
3443;SDS011;1736;52.068;6.968;2022-11-15T00:25:54;20.77;;;11.30;;
3443;SDS011;1736;52.068;6.968;2022-11-15T00:28:22;21.80;;;11.30;;
3443;SDS011;1736;52.068;6.968;2022-11-15T00:30:48;20.23;;;11.97;;
3443;SDS011;1736;52.068;6.968;2022-11-15T00:33:15;22.33;;;12.33;;
3443;SDS011;1736;52.068;6.968;2022-11-15T00:35:43;24.00;;;13.60;;
3443;SDS011;1736;52.068;6.968;2022-11-15T00:38:09;19.80;;;12.40;;
3443;SDS011;1736;52.068;6.968;2022-11-15T00:40:36;21.77;;;12.40;;
3443;SDS011;1736;52.068;6.968;2022-11-15T00:43:02;22.20;;;12.50;;
3443;SDS011;1736;52.068;6.968;2022-11-15T00:45:29;19.27;;;11.33;;
3443;SDS011;1736;52.068;6.968;2022-11-15T00:47:55;27.80;;;13.17;;
3443;SDS011;1736;52.068;6.968;2022-11-15T00:50:22;23.90;;;11.73;;
3443;SDS011;1736;52.068;6.968;2022-11-15T00:52:50;18.13;;;11.17;;
3443;SDS011;1736;52.068;6.968;2022-11-15T00:55:17;20.90;;;11.93;;
3443;SDS011;1736;52.068;6.968;2022-11-15T00:57:44;20.40;;;12.33;;
3443;SDS011;1736;52.068;6.968;2022-11-15T01:00:12;20.70;;;11.80;;
3443;SDS011;1736;52.068;6.968;2022-11-15T01:02:39;19.07;;;12.33;;
3443;SDS011;1736;52.068;6.968;2022-11-15T01:05:06;21.03;;;11.63;;
3443;SDS011;1736;52.068;6.968;2022-11-15T01:07:34;21.20;;;12.93;;
3443;SDS011;1736;52.068;6.968;2022-11-15T01:10:02;19.13;;;11.63;;
3443;SDS011;1736;52.068;6.968;2022-11-15T01:12:29;18.00;;;11.30;;
3443;SDS011;1736;52.068;6.968;2022-11-15T01:14:55;16.33;;;10.60;;
3443;SDS011;1736;52.068;6.968;2022-11-15T01:17:22;16.70;;;11.40;;
3443;SDS011;1736;52.068;6.968;2022-11-15T01:19:48;17.60;;;11.70;;
3443;SDS011;1736;52.068;6.968;2022-11-15T01:22:15;19.93;;;10.97;;
3443;SDS011;1736;52.068;6.968;2022-11-15T01:24:42;17.70;;;11.90;;
3443;SDS011;1736;52.068;6.968;2022-11-15T01:27:10;16.30;;;10.47;;
3443;SDS011;1736;52.068;6.968;2022-11-15T01:29:36;16.80;;;10.87;;
3443;SDS011;1736;52.068;6.968;2022-11-15T01:32:03;17.30;;;11.30;;
3443;SDS011;1736;52.068;6.968;2022-11-15T01:34:30;22.97;;;12.50;;
3443;SDS011;1736;52.068;6.968;2022-11-15T01:36:56;17.57;;;11.13;;
3443;SDS011;1736;52.068;6.968;2022-11-15T01:39:23;16.83;;;10.70;;
3443;SDS011;1736;52.068;6.968;2022-11-15T01:41:49;16.80;;;10.90;;
3443;SDS011;1736;52.068;6.968;2022-11-15T01:44:38;20.33;;;11.13;;
3443;SDS011;1736;52.068;6.968;2022-11-15T01:47:10;23.57;;;11.73;;
3443;SDS011;1736;52.068;6.968;2022-11-15T01:49:41;26.43;;;10.70;;
3443;SDS011;1736;52.068;6.968;2022-11-15T01:52:16;19.80;;;11.43;;
3443;SDS011;1736;52.068;6.968;2022-11-15T01:54:45;16.10;;;10.03;;
3443;SDS011;1736;52.068;6.968;2022-11-15T01:57:13;15.10;;;10.90;;
3443;SDS011;1736;52.068;6.968;2022-11-15T01:59:42;20.43;;;11.67;;
3443;SDS011;1736;52.068;6.968;2022-11-15T02:02:10;16.03;;;11.10;;
3443;SDS011;1736;52.068;6.968;2022-11-15T02:04:39;14.20;;;10.40;;
3443;SDS011;1736;52.068;6.968;2022-11-15T02:07:07;18.00;;;12.00;;
3443;SDS011;1736;52.068;6.968;2022-11-15T02:09:36;22.60;;;13.10;;
3443;SDS011;1736;52.068;6.968;2022-11-15T02:12:04;18.60;;;11.80;;
3443;SDS011;1736;52.068;6.968;2022-11-15T02:14:33;18.93;;;11.80;;
3443;SDS011;1736;52.068;6.968;2022-11-15T02:17:05;18.90;;;11.27;;
3443;SDS011;1736;52.068;6.968;2022-11-15T02:22:36;17.03;;;10.90;;
3443;SDS011;1736;52.068;6.968;2022-11-15T02:25:13;31.50;;;11.80;;
3443;SDS011;1736;52.068;6.968;2022-11-15T02:30:51;18.60;;;11.07;;
3443;SDS011;1736;52.068;6.968;2022-11-15T02:33:26;17.93;;;11.70;;
3443;SDS011;1736;52.068;6.968;2022-11-15T02:36:02;23.30;;;11.70;;
3443;SDS011;1736;52.068;6.968;2022-11-15T02:38:34;17.67;;;11.47;;
3443;SDS011;1736;52.068;6.968;2022-11-15T02:41:08;16.83;;;11.80;;
3443;SDS011;1736;52.068;6.968;2022-11-15T02:43:40;17.70;;;11.40;;
3443;SDS011;1736;52.068;6.968;2022-11-15T02:46:23;18.67;;;11.90;;
3443;SDS011;1736;52.068;6.968;2022-11-15T02:49:15;22.73;;;11.43;;
3443;SDS011;1736;52.068;6.968;2022-11-15T02:51:42;15.60;;;11.00;;
3443;SDS011;1736;52.068;6.968;2022-11-15T02:54:12;15.30;;;10.17;;
3443;SDS011;1736;52.068;6.968;2022-11-15T02:56:40;16.57;;;11.10;;
3443;SDS011;1736;52.068;6.968;2022-11-15T02:59:11;17.93;;;11.70;;
3443;SDS011;1736;52.068;6.968;2022-11-15T03:01:55;17.70;;;11.63;;
3443;SDS011;1736;52.068;6.968;2022-11-15T03:04:34;18.17;;;11.77;;
3443;SDS011;1736;52.068;6.968;2022-11-15T03:07:07;15.10;;;10.37;;
3443;SDS011;1736;52.068;6.968;2022-11-15T03:09:40;15.70;;;10.10;;
3443;SDS011;1736;52.068;6.968;2022-11-15T03:12:13;18.03;;;10.50;;
3443;SDS011;1736;52.068;6.968;2022-11-15T03:14:46;18.80;;;10.80;;
3443;SDS011;1736;52.068;6.968;2022-11-15T03:17:23;20.17;;;11.40;;
3443;SDS011;1736;52.068;6.968;2022-11-15T03:19:54;17.83;;;10.83;;
3443;SDS011;1736;52.068;6.968;2022-11-15T03:22:24;16.60;;;10.77;;
3443;SDS011;1736;52.068;6.968;2022-11-15T03:24:56;16.83;;;10.90;;
3443;SDS011;1736;52.068;6.968;2022-11-15T03:27:27;13.90;;;10.40;;
3443;SDS011;1736;52.068;6.968;2022-11-15T03:29:59;19.17;;;10.40;;
3443;SDS011;1736;52.068;6.968;2022-11-15T03:32:31;18.37;;;11.00;;
3443;SDS011;1736;52.068;6.968;2022-11-15T03:35:02;16.07;;;10.40;;
3443;SDS011;1736;52.068;6.968;2022-11-15T03:37:33;16.20;;;9.60;;
3443;SDS011;1736;52.068;6.968;2022-11-15T03:40:03;17.43;;;10.97;;
3443;SDS011;1736;52.068;6.968;2022-11-15T03:42:31;16.30;;;10.43;;
3443;SDS011;1736;52.068;6.968;2022-11-15T03:45:04;18.63;;;10.50;;
3443;SDS011;1736;52.068;6.968;2022-11-15T03:47:38;14.83;;;10.57;;
3443;SDS011;1736;52.068;6.968;2022-11-15T03:50:10;15.93;;;10.00;;
3443;SDS011;1736;52.068;6.968;2022-11-15T03:52:39;17.37;;;11.10;;
3443;SDS011;1736;52.068;6.968;2022-11-15T03:55:08;16.97;;;10.60;;
3443;SDS011;1736;52.068;6.968;2022-11-15T03:57:36;18.70;;;10.77;;
3443;SDS011;1736;52.068;6.968;2022-11-15T04:00:04;15.33;;;11.17;;
3443;SDS011;1736;52.068;6.968;2022-11-15T04:02:31;14.20;;;10.20;;
3443;SDS011;1736;52.068;6.968;2022-11-15T04:04:59;14.00;;;10.47;;
3443;SDS011;1736;52.068;6.968;2022-11-15T04:07:26;17.20;;;9.70;;
3443;SDS011;1736;52.068;6.968;2022-11-15T04:09:52;14.80;;;9.77;;
3443;SDS011;1736;52.068;6.968;2022-11-15T04:12:28;19.10;;;10.23;;
3443;SDS011;1736;52.068;6.968;2022-11-15T04:14:57;13.67;;;10.40;;
3443;SDS011;1736;52.068;6.968;2022-11-15T04:17:35;15.20;;;10.40;;
3443;SDS011;1736;52.068;6.968;2022-11-15T04:20:07;16.17;;;10.63;;
3443;SDS011;1736;52.068;6.968;2022-11-15T04:22:54;16.73;;;9.77;;
3443;SDS011;1736;52.068;6.968;2022-11-15T04:25:39;13.20;;;9.60;;
3443;SDS011;1736;52.068;6.968;2022-11-15T04:28:07;16.97;;;10.53;;
3443;SDS011;1736;52.068;6.968;2022-11-15T04:30:33;16.10;;;10.50;;
3443;SDS011;1736;52.068;6.968;2022-11-15T04:33:00;14.63;;;9.60;;
3443;SDS011;1736;52.068;6.968;2022-11-15T04:35:28;14.87;;;9.50;;
3443;SDS011;1736;52.068;6.968;2022-11-15T04:37:55;19.00;;;9.53;;
3443;SDS011;1736;52.068;6.968;2022-11-15T04:40:21;15.70;;;10.17;;
3443;SDS011;1736;52.068;6.968;2022-11-15T04:42:48;15.97;;;9.43;;
3443;SDS011;1736;52.068;6.968;2022-11-15T04:45:14;18.30;;;9.73;;
3443;SDS011;1736;52.068;6.968;2022-11-15T04:47:42;13.67;;;10.07;;
3443;SDS011;1736;52.068;6.968;2022-11-15T04:50:09;14.77;;;9.63;;
3443;SDS011;1736;52.068;6.968;2022-11-15T04:52:39;15.93;;;9.40;;
3443;SDS011;1736;52.068;6.968;2022-11-15T04:55:06;17.63;;;10.70;;
3443;SDS011;1736;52.068;6.968;2022-11-15T04:57:33;15.30;;;9.40;;
3443;SDS011;1736;52.068;6.968;2022-11-15T04:59:59;15.37;;;9.80;;
3443;SDS011;1736;52.068;6.968;2022-11-15T05:02:26;17.63;;;10.20;;
3443;SDS011;1736;52.068;6.968;2022-11-15T05:05:13;15.53;;;9.10;;
3443;SDS011;1736;52.068;6.968;2022-11-15T05:07:40;14.20;;;9.33;;
3443;SDS011;1736;52.068;6.968;2022-11-15T05:10:07;12.73;;;9.23;;
3443;SDS011;1736;52.068;6.968;2022-11-15T05:12:34;14.70;;;9.67;;
3443;SDS011;1736;52.068;6.968;2022-11-15T05:15:01;13.40;;;9.83;;
3443;SDS011;1736;52.068;6.968;2022-11-15T05:17:28;18.83;;;9.67;;
3443;SDS011;1736;52.068;6.968;2022-11-15T05:19:54;14.07;;;10.33;;
3443;SDS011;1736;52.068;6.968;2022-11-15T05:22:21;14.97;;;10.63;;
3443;SDS011;1736;52.068;6.968;2022-11-15T05:24:49;14.13;;;9.60;;
3443;SDS011;1736;52.068;6.968;2022-11-15T05:27:16;15.30;;;10.40;;
3443;SDS011;1736;52.068;6.968;2022-11-15T05:29:42;21.67;;;10.30;;
3443;SDS011;1736;52.068;6.968;2022-11-15T05:32:09;18.83;;;11.07;;
3443;SDS011;1736;52.068;6.968;2022-11-15T05:34:37;16.87;;;10.20;;
3443;SDS011;1736;52.068;6.968;2022-11-15T05:37:04;22.87;;;12.20;;
3443;SDS011;1736;52.068;6.968;2022-11-15T05:39:31;18.00;;;11.07;;
3443;SDS011;1736;52.068;6.968;2022-11-15T05:41:59;15.27;;;10.50;;
3443;SDS011;1736;52.068;6.968;2022-11-15T05:44:31;15.40;;;10.90;;
3443;SDS011;1736;52.068;6.968;2022-11-15T05:46:58;16.40;;;11.10;;
3443;SDS011;1736;52.068;6.968;2022-11-15T05:49:25;16.27;;;11.40;;
3443;SDS011;1736;52.068;6.968;2022-11-15T05:51:56;21.27;;;11.30;;
3443;SDS011;1736;52.068;6.968;2022-11-15T05:54:23;16.20;;;11.27;;
3443;SDS011;1736;52.068;6.968;2022-11-15T05:56:51;16.97;;;11.70;;
3443;SDS011;1736;52.068;6.968;2022-11-15T05:59:20;20.33;;;11.60;;
3443;SDS011;1736;52.068;6.968;2022-11-15T06:01:46;18.90;;;11.50;;
3443;SDS011;1736;52.068;6.968;2022-11-15T06:04:13;16.43;;;11.77;;
3443;SDS011;1736;52.068;6.968;2022-11-15T06:06:40;20.73;;;12.50;;
3443;SDS011;1736;52.068;6.968;2022-11-15T06:09:06;19.40;;;12.07;;
3443;SDS011;1736;52.068;6.968;2022-11-15T06:11:33;22.80;;;12.60;;
3443;SDS011;1736;52.068;6.968;2022-11-15T06:13:59;18.87;;;12.60;;
3443;SDS011;1736;52.068;6.968;2022-11-15T06:16:27;21.20;;;12.73;;
3443;SDS011;1736;52.068;6.968;2022-11-15T06:18:54;20.53;;;13.50;;
3443;SDS011;1736;52.068;6.968;2022-11-15T06:21:20;20.13;;;12.27;;
3443;SDS011;1736;52.068;6.968;2022-11-15T06:23:47;20.27;;;12.67;;
3443;SDS011;1736;52.068;6.968;2022-11-15T06:26:13;19.57;;;13.00;;
3443;SDS011;1736;52.068;6.968;2022-11-15T06:28:40;20.63;;;12.07;;
3443;SDS011;1736;52.068;6.968;2022-11-15T06:31:07;22.00;;;12.93;;
3443;SDS011;1736;52.068;6.968;2022-11-15T06:33:37;19.00;;;12.10;;
3443;SDS011;1736;52.068;6.968;2022-11-15T06:36:05;19.47;;;12.27;;
3443;SDS011;1736;52.068;6.968;2022-11-15T06:38:33;22.93;;;13.50;;
3443;SDS011;1736;52.068;6.968;2022-11-15T06:41:01;20.27;;;12.70;;
3443;SDS011;1736;52.068;6.968;2022-11-15T06:43:28;21.40;;;12.90;;
3443;SDS011;1736;52.068;6.968;2022-11-15T06:45:55;20.60;;;13.03;;
3443;SDS011;1736;52.068;6.968;2022-11-15T06:48:21;18.60;;;12.83;;
3443;SDS011;1736;52.068;6.968;2022-11-15T06:50:51;20.57;;;12.63;;
3443;SDS011;1736;52.068;6.968;2022-11-15T06:53:18;22.23;;;12.40;;
3443;SDS011;1736;52.068;6.968;2022-11-15T06:55:44;21.40;;;13.50;;
3443;SDS011;1736;52.068;6.968;2022-11-15T06:58:11;18.90;;;13.37;;
3443;SDS011;1736;52.068;6.968;2022-11-15T07:00:37;19.77;;;12.47;;
3443;SDS011;1736;52.068;6.968;2022-11-15T07:03:04;20.00;;;13.63;;
3443;SDS011;1736;52.068;6.968;2022-11-15T07:05:31;20.07;;;12.63;;
3443;SDS011;1736;52.068;6.968;2022-11-15T07:07:59;22.90;;;13.53;;
3443;SDS011;1736;52.068;6.968;2022-11-15T07:10:26;22.97;;;13.23;;
3443;SDS011;1736;52.068;6.968;2022-11-15T07:12:54;22.90;;;13.27;;
3443;SDS011;1736;52.068;6.968;2022-11-15T07:15:21;21.00;;;12.60;;
3443;SDS011;1736;52.068;6.968;2022-11-15T07:17:49;19.70;;;12.47;;
3443;SDS011;1736;52.068;6.968;2022-11-15T07:20:16;21.37;;;12.70;;
3443;SDS011;1736;52.068;6.968;2022-11-15T07:22:43;26.03;;;14.17;;
3443;SDS011;1736;52.068;6.968;2022-11-15T07:25:12;19.27;;;12.60;;
3443;SDS011;1736;52.068;6.968;2022-11-15T07:27:38;23.93;;;13.50;;
3443;SDS011;1736;52.068;6.968;2022-11-15T07:30:05;25.03;;;13.57;;
3443;SDS011;1736;52.068;6.968;2022-11-15T07:32:32;24.83;;;14.67;;
3443;SDS011;1736;52.068;6.968;2022-11-15T07:35:00;26.80;;;13.30;;
3443;SDS011;1736;52.068;6.968;2022-11-15T07:37:26;22.53;;;12.00;;
3443;SDS011;1736;52.068;6.968;2022-11-15T07:39:53;26.30;;;14.07;;
3443;SDS011;1736;52.068;6.968;2022-11-15T07:42:21;20.50;;;12.53;;
3443;SDS011;1736;52.068;6.968;2022-11-15T07:45:05;20.30;;;12.17;;
3443;SDS011;1736;52.068;6.968;2022-11-15T07:47:32;21.57;;;12.73;;
3443;SDS011;1736;52.068;6.968;2022-11-15T07:49:58;20.23;;;12.67;;
3443;SDS011;1736;52.068;6.968;2022-11-15T07:52:25;17.53;;;12.00;;
3443;SDS011;1736;52.068;6.968;2022-11-15T07:54:51;19.60;;;12.10;;
3443;SDS011;1736;52.068;6.968;2022-11-15T07:57:18;18.60;;;11.17;;
3443;SDS011;1736;52.068;6.968;2022-11-15T07:59:46;23.13;;;12.23;;
3443;SDS011;1736;52.068;6.968;2022-11-15T08:02:12;19.03;;;12.50;;
3443;SDS011;1736;52.068;6.968;2022-11-15T08:04:41;19.17;;;10.93;;
3443;SDS011;1736;52.068;6.968;2022-11-15T08:07:08;13.47;;;10.20;;
3443;SDS011;1736;52.068;6.968;2022-11-15T08:09:35;20.80;;;11.13;;
3443;SDS011;1736;52.068;6.968;2022-11-15T08:12:01;20.53;;;11.57;;
3443;SDS011;1736;52.068;6.968;2022-11-15T08:14:28;13.83;;;9.70;;
3443;SDS011;1736;52.068;6.968;2022-11-15T08:16:56;16.10;;;10.87;;
3443;SDS011;1736;52.068;6.968;2022-11-15T08:19:23;13.33;;;10.07;;
3443;SDS011;1736;52.068;6.968;2022-11-15T08:21:49;17.67;;;11.10;;
3443;SDS011;1736;52.068;6.968;2022-11-15T08:24:16;13.20;;;9.60;;
3443;SDS011;1736;52.068;6.968;2022-11-15T08:26:42;12.07;;;8.83;;
3443;SDS011;1736;52.068;6.968;2022-11-15T08:29:09;16.03;;;9.40;;
3443;SDS011;1736;52.068;6.968;2022-11-15T08:31:36;14.43;;;9.00;;
3443;SDS011;1736;52.068;6.968;2022-11-15T08:34:04;11.53;;;8.30;;
3443;SDS011;1736;52.068;6.968;2022-11-15T08:36:31;14.83;;;8.20;;
3443;SDS011;1736;52.068;6.968;2022-11-15T08:38:58;11.60;;;7.93;;
3443;SDS011;1736;52.068;6.968;2022-11-15T08:41:25;12.03;;;7.90;;
3443;SDS011;1736;52.068;6.968;2022-11-15T08:43:55;10.23;;;7.80;;
3443;SDS011;1736;52.068;6.968;2022-11-15T08:46:22;12.10;;;7.70;;
3443;SDS011;1736;52.068;6.968;2022-11-15T08:48:49;10.20;;;7.30;;
3443;SDS011;1736;52.068;6.968;2022-11-15T08:51:17;8.83;;;6.60;;
3443;SDS011;1736;52.068;6.968;2022-11-15T08:53:43;11.00;;;6.20;;
3443;SDS011;1736;52.068;6.968;2022-11-15T08:56:10;7.83;;;6.43;;
3443;SDS011;1736;52.068;6.968;2022-11-15T08:58:38;10.47;;;6.40;;
3443;SDS011;1736;52.068;6.968;2022-11-15T09:01:06;8.50;;;6.63;;
3443;SDS011;1736;52.068;6.968;2022-11-15T09:03:39;10.60;;;6.87;;
3443;SDS011;1736;52.068;6.968;2022-11-15T09:06:06;11.80;;;7.60;;
3443;SDS011;1736;52.068;6.968;2022-11-15T09:08:34;7.73;;;5.80;;
3443;SDS011;1736;52.068;6.968;2022-11-15T09:11:03;10.37;;;6.17;;
3443;SDS011;1736;52.068;6.968;2022-11-15T09:13:31;14.03;;;7.07;;
3443;SDS011;1736;52.068;6.968;2022-11-15T09:15:58;9.00;;;6.40;;
3443;SDS011;1736;52.068;6.968;2022-11-15T09:18:24;8.10;;;6.37;;
3443;SDS011;1736;52.068;6.968;2022-11-15T09:20:54;7.07;;;5.90;;
3443;SDS011;1736;52.068;6.968;2022-11-15T09:23:22;5.60;;;4.97;;
3443;SDS011;1736;52.068;6.968;2022-11-15T09:25:51;5.57;;;4.97;;
3443;SDS011;1736;52.068;6.968;2022-11-15T09:28:18;5.23;;;4.73;;
3443;SDS011;1736;52.068;6.968;2022-11-15T09:30:45;5.20;;;4.50;;
3443;SDS011;1736;52.068;6.968;2022-11-15T09:33:11;4.40;;;3.70;;
3443;SDS011;1736;52.068;6.968;2022-11-15T09:35:38;6.77;;;3.80;;
3443;SDS011;1736;52.068;6.968;2022-11-15T09:38:06;3.53;;;3.23;;
3443;SDS011;1736;52.068;6.968;2022-11-15T09:40:32;4.10;;;3.33;;
3443;SDS011;1736;52.068;6.968;2022-11-15T09:43:10;3.83;;;3.50;;
3443;SDS011;1736;52.068;6.968;2022-11-15T09:46:04;4.93;;;3.47;;
3443;SDS011;1736;52.068;6.968;2022-11-15T09:51:25;3.27;;;2.97;;
3443;SDS011;1736;52.068;6.968;2022-11-15T09:53:56;3.53;;;3.23;;
3443;SDS011;1736;52.068;6.968;2022-11-15T09:56:28;3.27;;;2.97;;
3443;SDS011;1736;52.068;6.968;2022-11-15T09:59:00;3.57;;;3.17;;
3443;SDS011;1736;52.068;6.968;2022-11-15T10:01:35;5.00;;;2.80;;
3443;SDS011;1736;52.068;6.968;2022-11-15T10:04:05;4.60;;;3.37;;
3443;SDS011;1736;52.068;6.968;2022-11-15T10:06:32;5.93;;;2.80;;
3443;SDS011;1736;52.068;6.968;2022-11-15T10:09:03;5.30;;;3.20;;
3443;SDS011;1736;52.068;6.968;2022-11-15T10:11:34;2.93;;;2.70;;
3443;SDS011;1736;52.068;6.968;2022-11-15T10:14:07;2.80;;;2.60;;
3443;SDS011;1736;52.068;6.968;2022-11-15T10:19:43;2.90;;;2.27;;
3443;SDS011;1736;52.068;6.968;2022-11-15T10:22:21;2.87;;;2.30;;
3443;SDS011;1736;52.068;6.968;2022-11-15T10:24:57;3.23;;;2.40;;
3443;SDS011;1736;52.068;6.968;2022-11-15T10:27:36;8.17;;;4.37;;
3443;SDS011;1736;52.068;6.968;2022-11-15T10:30:08;4.40;;;2.53;;
3443;SDS011;1736;52.068;6.968;2022-11-15T10:32:37;3.90;;;2.20;;
3443;SDS011;1736;52.068;6.968;2022-11-15T10:35:15;2.43;;;1.90;;
3443;SDS011;1736;52.068;6.968;2022-11-15T10:37:46;2.27;;;2.17;;
3443;SDS011;1736;52.068;6.968;2022-11-15T10:40:17;2.30;;;1.90;;
3443;SDS011;1736;52.068;6.968;2022-11-15T10:42:46;2.13;;;1.83;;
3443;SDS011;1736;52.068;6.968;2022-11-15T10:45:25;2.50;;;1.70;;
3443;SDS011;1736;52.068;6.968;2022-11-15T10:47:53;2.17;;;2.03;;
3443;SDS011;1736;52.068;6.968;2022-11-15T10:50:40;2.03;;;1.83;;
3443;SDS011;1736;52.068;6.968;2022-11-15T10:53:11;5.03;;;2.57;;
3443;SDS011;1736;52.068;6.968;2022-11-15T10:55:46;2.07;;;1.97;;
3443;SDS011;1736;52.068;6.968;2022-11-15T10:58:19;2.40;;;2.20;;
3443;SDS011;1736;52.068;6.968;2022-11-15T11:00:51;4.80;;;2.10;;
3443;SDS011;1736;52.068;6.968;2022-11-15T11:03:27;2.20;;;1.60;;
3443;SDS011;1736;52.068;6.968;2022-11-15T11:06:05;2.60;;;1.93;;
3443;SDS011;1736;52.068;6.968;2022-11-15T11:08:34;2.10;;;1.90;;
3443;SDS011;1736;52.068;6.968;2022-11-15T11:11:01;2.67;;;1.80;;
3443;SDS011;1736;52.068;6.968;2022-11-15T11:13:31;2.07;;;1.93;;
3443;SDS011;1736;52.068;6.968;2022-11-15T11:16:05;4.60;;;2.30;;
3443;SDS011;1736;52.068;6.968;2022-11-15T11:18:53;2.57;;;2.37;;
3443;SDS011;1736;52.068;6.968;2022-11-15T11:21:31;3.43;;;3.13;;
3443;SDS011;1736;52.068;6.968;2022-11-15T11:24:08;6.17;;;2.47;;
3443;SDS011;1736;52.068;6.968;2022-11-15T11:26:44;3.20;;;2.90;;
3443;SDS011;1736;52.068;6.968;2022-11-15T11:29:25;3.30;;;2.80;;
3443;SDS011;1736;52.068;6.968;2022-11-15T11:32:04;3.07;;;2.80;;
3443;SDS011;1736;52.068;6.968;2022-11-15T11:34:47;3.90;;;2.97;;
3443;SDS011;1736;52.068;6.968;2022-11-15T11:37:23;4.53;;;3.47;;
3443;SDS011;1736;52.068;6.968;2022-11-15T11:39:57;4.00;;;3.00;;
3443;SDS011;1736;52.068;6.968;2022-11-15T11:42:36;4.27;;;3.27;;
3443;SDS011;1736;52.068;6.968;2022-11-15T11:45:14;4.10;;;3.43;;
3443;SDS011;1736;52.068;6.968;2022-11-15T11:47:48;5.90;;;3.80;;
3443;SDS011;1736;52.068;6.968;2022-11-15T11:50:23;5.03;;;3.43;;
3443;SDS011;1736;52.068;6.968;2022-11-15T11:52:54;6.13;;;4.10;;
3443;SDS011;1736;52.068;6.968;2022-11-15T11:55:24;6.33;;;3.90;;
3443;SDS011;1736;52.068;6.968;2022-11-15T11:57:56;4.17;;;3.77;;
3443;SDS011;1736;52.068;6.968;2022-11-15T12:00:29;4.87;;;3.90;;
3443;SDS011;1736;52.068;6.968;2022-11-15T12:03:04;5.27;;;3.60;;
3443;SDS011;1736;52.068;6.968;2022-11-15T12:05:39;3.50;;;3.20;;
3443;SDS011;1736;52.068;6.968;2022-11-15T12:08:15;13.97;;;4.70;;
3443;SDS011;1736;52.068;6.968;2022-11-15T12:10:59;3.87;;;3.37;;
3443;SDS011;1736;52.068;6.968;2022-11-15T12:13:30;4.87;;;3.33;;
3443;SDS011;1736;52.068;6.968;2022-11-15T12:16:02;6.37;;;3.87;;
3443;SDS011;1736;52.068;6.968;2022-11-15T12:18:36;4.27;;;3.37;;
3443;SDS011;1736;52.068;6.968;2022-11-15T12:21:04;3.70;;;3.07;;
3443;SDS011;1736;52.068;6.968;2022-11-15T12:23:43;4.00;;;3.27;;
3443;SDS011;1736;52.068;6.968;2022-11-15T12:26:15;3.17;;;2.93;;
3443;SDS011;1736;52.068;6.968;2022-11-15T12:28:46;5.63;;;3.00;;
3443;SDS011;1736;52.068;6.968;2022-11-15T12:31:17;4.00;;;2.87;;
3443;SDS011;1736;52.068;6.968;2022-11-15T12:33:49;2.80;;;2.60;;
3443;SDS011;1736;52.068;6.968;2022-11-15T12:36:30;3.67;;;2.80;;
3443;SDS011;1736;52.068;6.968;2022-11-15T12:39:02;3.00;;;2.70;;
3443;SDS011;1736;52.068;6.968;2022-11-15T12:41:30;3.20;;;2.53;;
3443;SDS011;1736;52.068;6.968;2022-11-15T12:43:58;3.23;;;2.10;;
3443;SDS011;1736;52.068;6.968;2022-11-15T12:49:44;2.23;;;2.03;;
3443;SDS011;1736;52.068;6.968;2022-11-15T12:52:12;2.63;;;2.23;;
3443;SDS011;1736;52.068;6.968;2022-11-15T12:57:58;2.50;;;1.80;;
3443;SDS011;1736;52.068;6.968;2022-11-15T13:00:53;3.90;;;2.37;;
3443;SDS011;1736;52.068;6.968;2022-11-15T13:03:20;1.80;;;1.70;;
3443;SDS011;1736;52.068;6.968;2022-11-15T13:05:55;6.20;;;2.07;;
3443;SDS011;1736;52.068;6.968;2022-11-15T13:08:37;3.97;;;2.30;;
3443;SDS011;1736;52.068;6.968;2022-11-15T13:14:34;3.43;;;1.90;;
3443;SDS011;1736;52.068;6.968;2022-11-15T13:17:12;2.27;;;2.00;;
3443;SDS011;1736;52.068;6.968;2022-11-15T13:19:48;3.80;;;1.80;;
3443;SDS011;1736;52.068;6.968;2022-11-15T13:22:22;4.70;;;2.13;;
3443;SDS011;1736;52.068;6.968;2022-11-15T13:25:14;1.70;;;1.60;;
3443;SDS011;1736;52.068;6.968;2022-11-15T13:27:44;2.47;;;1.83;;
3443;SDS011;1736;52.068;6.968;2022-11-15T13:30:13;3.70;;;1.60;;
3443;SDS011;1736;52.068;6.968;2022-11-15T13:32:42;3.37;;;1.90;;
3443;SDS011;1736;52.068;6.968;2022-11-15T13:35:08;2.00;;;1.83;;
3443;SDS011;1736;52.068;6.968;2022-11-15T13:37:36;2.80;;;1.70;;
3443;SDS011;1736;52.068;6.968;2022-11-15T13:40:10;2.73;;;1.73;;
3443;SDS011;1736;52.068;6.968;2022-11-15T13:42:44;1.97;;;1.60;;
3443;SDS011;1736;52.068;6.968;2022-11-15T13:45:12;1.43;;;1.33;;
3443;SDS011;1736;52.068;6.968;2022-11-15T13:47:41;1.70;;;1.60;;
3443;SDS011;1736;52.068;6.968;2022-11-15T13:50:10;2.43;;;1.83;;
3443;SDS011;1736;52.068;6.968;2022-11-15T13:52:39;2.03;;;1.73;;
3443;SDS011;1736;52.068;6.968;2022-11-15T13:55:10;3.50;;;1.80;;
3443;SDS011;1736;52.068;6.968;2022-11-15T13:57:40;2.00;;;1.50;;
3443;SDS011;1736;52.068;6.968;2022-11-15T14:00:24;3.70;;;1.80;;
3443;SDS011;1736;52.068;6.968;2022-11-15T14:02:53;2.20;;;1.60;;
3443;SDS011;1736;52.068;6.968;2022-11-15T14:05:22;1.90;;;1.80;;
3443;SDS011;1736;52.068;6.968;2022-11-15T14:07:55;3.40;;;1.80;;
3443;SDS011;1736;52.068;6.968;2022-11-15T14:10:27;3.20;;;2.20;;
3443;SDS011;1736;52.068;6.968;2022-11-15T14:12:55;2.03;;;1.80;;
3443;SDS011;1736;52.068;6.968;2022-11-15T14:15:27;5.63;;;2.50;;
3443;SDS011;1736;52.068;6.968;2022-11-15T14:17:56;1.47;;;1.37;;
3443;SDS011;1736;52.068;6.968;2022-11-15T14:20:26;4.50;;;2.50;;
3443;SDS011;1736;52.068;6.968;2022-11-15T14:22:57;3.30;;;1.60;;
3443;SDS011;1736;52.068;6.968;2022-11-15T14:25:25;4.53;;;3.10;;
3443;SDS011;1736;52.068;6.968;2022-11-15T14:28:10;3.17;;;2.07;;
3443;SDS011;1736;52.068;6.968;2022-11-15T14:30:56;7.10;;;3.03;;
3443;SDS011;1736;52.068;6.968;2022-11-15T14:33:25;3.00;;;2.03;;
3443;SDS011;1736;52.068;6.968;2022-11-15T14:35:56;2.03;;;1.83;;
3443;SDS011;1736;52.068;6.968;2022-11-15T14:38:24;1.70;;;1.60;;
3443;SDS011;1736;52.068;6.968;2022-11-15T14:40:51;2.27;;;2.07;;
3443;SDS011;1736;52.068;6.968;2022-11-15T14:43:18;3.30;;;2.17;;
3443;SDS011;1736;52.068;6.968;2022-11-15T14:45:45;1.87;;;1.40;;
3443;SDS011;1736;52.068;6.968;2022-11-15T14:48:12;3.67;;;1.90;;
3443;SDS011;1736;52.068;6.968;2022-11-15T14:50:38;2.13;;;2.03;;
3443;SDS011;1736;52.068;6.968;2022-11-15T14:53:05;2.83;;;2.63;;
3443;SDS011;1736;52.068;6.968;2022-11-15T14:55:33;2.73;;;2.20;;
3443;SDS011;1736;52.068;6.968;2022-11-15T14:58:01;2.73;;;2.40;;
3443;SDS011;1736;52.068;6.968;2022-11-15T15:00:28;5.17;;;2.83;;
3443;SDS011;1736;52.068;6.968;2022-11-15T15:02:55;2.50;;;2.30;;
3443;SDS011;1736;52.068;6.968;2022-11-15T15:05:23;2.40;;;2.20;;
3443;SDS011;1736;52.068;6.968;2022-11-15T15:07:51;3.03;;;2.33;;
3443;SDS011;1736;52.068;6.968;2022-11-15T15:10:18;5.57;;;2.20;;
3443;SDS011;1736;52.068;6.968;2022-11-15T15:12:46;2.77;;;2.07;;
3443;SDS011;1736;52.068;6.968;2022-11-15T15:15:14;3.10;;;2.47;;
3443;SDS011;1736;52.068;6.968;2022-11-15T15:17:42;3.50;;;1.90;;
3443;SDS011;1736;52.068;6.968;2022-11-15T15:20:09;4.30;;;2.27;;
3443;SDS011;1736;52.068;6.968;2022-11-15T15:22:36;5.30;;;3.10;;
3443;SDS011;1736;52.068;6.968;2022-11-15T15:25:07;5.00;;;4.10;;
3443;SDS011;1736;52.068;6.968;2022-11-15T15:27:47;18.17;;;3.90;;
3443;SDS011;1736;52.068;6.968;2022-11-15T15:30:15;4.20;;;2.70;;
3443;SDS011;1736;52.068;6.968;2022-11-15T15:32:41;9.73;;;2.10;;
3443;SDS011;1736;52.068;6.968;2022-11-15T15:35:10;5.27;;;2.27;;
3443;SDS011;1736;52.068;6.968;2022-11-15T15:37:38;4.50;;;1.93;;
3443;SDS011;1736;52.068;6.968;2022-11-15T15:40:08;3.90;;;1.80;;